sensor_id;sensor_type;location;lat;lon;timestamp;pressure;altitude;pressure_sealevel;temperature;humidity
9439;BME280;5176;42.622;25.386;2022-12-20T00:01:14;99346.06;;;-0.56;77.32
9439;BME280;5176;42.622;25.386;2022-12-20T00:03:45;99340.81;;;-0.62;76.63
9439;BME280;5176;42.622;25.386;2022-12-20T00:06:12;99355.56;;;-0.53;76.63
9439;BME280;5176;42.622;25.386;2022-12-20T00:08:40;99355.59;;;-0.51;76.32
9439;BME280;5176;42.622;25.386;2022-12-20T00:11:08;99365.06;;;-0.49;76.30
9439;BME280;5176;42.622;25.386;2022-12-20T00:13:35;99357.31;;;-0.50;75.84
9439;BME280;5176;42.622;25.386;2022-12-20T00:16:04;99351.25;;;-0.54;76.03
9439;BME280;5176;42.622;25.386;2022-12-20T00:18:33;99359.09;;;-0.46;77.09
9439;BME280;5176;42.622;25.386;2022-12-20T00:21:04;99352.13;;;-0.53;76.76
9439;BME280;5176;42.622;25.386;2022-12-20T00:23:33;99357.31;;;-0.50;77.11
9439;BME280;5176;42.622;25.386;2022-12-20T00:26:02;99358.09;;;-0.55;77.00
9439;BME280;5176;42.622;25.386;2022-12-20T00:28:30;99344.28;;;-0.61;76.58
9439;BME280;5176;42.622;25.386;2022-12-20T00:30:57;99357.22;;;-0.57;76.42
9439;BME280;5176;42.622;25.386;2022-12-20T00:33:25;99356.34;;;-0.59;76.55
9439;BME280;5176;42.622;25.386;2022-12-20T00:35:54;99349.44;;;-0.61;76.34
9439;BME280;5176;42.622;25.386;2022-12-20T00:38:27;99346.72;;;-0.72;75.58
9439;BME280;5176;42.622;25.386;2022-12-20T00:41:01;99350.03;;;-0.79;74.75
9439;BME280;5176;42.622;25.386;2022-12-20T00:43:29;99336.09;;;-0.93;74.18
9439;BME280;5176;42.622;25.386;2022-12-20T00:45:57;99353.28;;;-0.92;73.71
9439;BME280;5176;42.622;25.386;2022-12-20T00:48:25;99346.97;;;-1.11;73.19
9439;BME280;5176;42.622;25.386;2022-12-20T00:50:58;99343.22;;;-1.28;73.73
9439;BME280;5176;42.622;25.386;2022-12-20T00:53:28;99342.25;;;-1.35;74.77
9439;BME280;5176;42.622;25.386;2022-12-20T00:55:55;99343.19;;;-1.31;74.80
9439;BME280;5176;42.622;25.386;2022-12-20T00:58:23;99335.56;;;-1.27;75.61
9439;BME280;5176;42.622;25.386;2022-12-20T01:00:51;99339.78;;;-1.29;76.75
9439;BME280;5176;42.622;25.386;2022-12-20T01:03:18;99325.09;;;-1.36;76.32
9439;BME280;5176;42.622;25.386;2022-12-20T01:05:50;99327.84;;;-1.25;76.86
9439;BME280;5176;42.622;25.386;2022-12-20T01:08:20;99279.31;;;-1.54;74.49
9439;BME280;5176;42.622;25.386;2022-12-20T01:10:57;99318.31;;;-1.31;74.50
9439;BME280;5176;42.622;25.386;2022-12-20T01:13:25;99316.56;;;-1.33;74.63
9439;BME280;5176;42.622;25.386;2022-12-20T01:15:53;99316.50;;;-1.37;74.42
9439;BME280;5176;42.622;25.386;2022-12-20T01:18:20;99321.53;;;-1.43;73.28
9439;BME280;5176;42.622;25.386;2022-12-20T01:20:48;99320.56;;;-1.51;73.39
9439;BME280;5176;42.622;25.386;2022-12-20T01:23:15;99315.25;;;-1.60;73.23
9439;BME280;5176;42.622;25.386;2022-12-20T01:25:42;99317.72;;;-1.66;73.21
9439;BME280;5176;42.622;25.386;2022-12-20T01:28:11;99313.44;;;-1.66;73.42
9439;BME280;5176;42.622;25.386;2022-12-20T01:30:39;99311.72;;;-1.67;73.35
9439;BME280;5176;42.622;25.386;2022-12-20T01:33:07;99280.63;;;-1.79;74.91
9439;BME280;5176;42.622;25.386;2022-12-20T01:35:35;99297.19;;;-1.61;76.91
9439;BME280;5176;42.622;25.386;2022-12-20T01:38:02;99292.19;;;-1.54;77.12
9439;BME280;5176;42.622;25.386;2022-12-20T01:40:29;99284.47;;;-1.54;76.30
9439;BME280;5176;42.622;25.386;2022-12-20T01:42:57;99281.97;;;-1.51;77.42
9439;BME280;5176;42.622;25.386;2022-12-20T01:45:28;99281.94;;;-1.52;79.02
9439;BME280;5176;42.622;25.386;2022-12-20T01:47:56;99281.13;;;-1.48;78.78
9439;BME280;5176;42.622;25.386;2022-12-20T01:50:25;99281.13;;;-1.50;79.10
9439;BME280;5176;42.622;25.386;2022-12-20T01:52:53;99267.41;;;-1.49;78.87
9439;BME280;5176;42.622;25.386;2022-12-20T01:55:23;99271.78;;;-1.43;79.68
9439;BME280;5176;42.622;25.386;2022-12-20T01:57:55;99274.38;;;-1.43;80.54
9439;BME280;5176;42.622;25.386;2022-12-20T02:00:26;99264.09;;;-1.42;80.05
9439;BME280;5176;42.622;25.386;2022-12-20T02:02:54;99268.41;;;-1.41;80.62
9439;BME280;5176;42.622;25.386;2022-12-20T02:05:24;99264.16;;;-1.39;80.23
9439;BME280;5176;42.622;25.386;2022-12-20T02:07:53;99269.31;;;-1.39;81.52
9439;BME280;5176;42.622;25.386;2022-12-20T02:10:23;99272.72;;;-1.40;80.17
9439;BME280;5176;42.622;25.386;2022-12-20T02:12:58;99264.03;;;-1.46;79.17
9439;BME280;5176;42.622;25.386;2022-12-20T02:15:39;99257.94;;;-1.53;78.70
9439;BME280;5176;42.622;25.386;2022-12-20T02:18:17;99264.44;;;-1.73;79.40
9439;BME280;5176;42.622;25.386;2022-12-20T02:21:13;99256.84;;;-1.66;80.66
9439;BME280;5176;42.622;25.386;2022-12-20T02:24:10;99224.75;;;-1.87;80.89
9439;BME280;5176;42.622;25.386;2022-12-20T02:27:08;99218.59;;;-1.97;81.25
9439;BME280;5176;42.622;25.386;2022-12-20T02:30:11;99230.81;;;-1.85;81.70
9439;BME280;5176;42.622;25.386;2022-12-20T02:32:47;99246.44;;;-1.73;78.79
9439;BME280;5176;42.622;25.386;2022-12-20T02:35:20;99237.94;;;-1.68;78.95
9439;BME280;5176;42.622;25.386;2022-12-20T02:37:50;99239.72;;;-1.65;77.64
9439;BME280;5176;42.622;25.386;2022-12-20T02:40:22;99237.81;;;-1.77;76.82
9439;BME280;5176;42.622;25.386;2022-12-20T02:42:53;99242.94;;;-1.77;77.62
9439;BME280;5176;42.622;25.386;2022-12-20T02:45:27;99248.16;;;-1.72;79.08
9439;BME280;5176;42.622;25.386;2022-12-20T02:47:58;99254.19;;;-1.72;79.59
9439;BME280;5176;42.622;25.386;2022-12-20T02:50:29;99229.13;;;-1.82;78.83
9439;BME280;5176;42.622;25.386;2022-12-20T02:52:58;99240.34;;;-1.78;79.63
9439;BME280;5176;42.622;25.386;2022-12-20T02:55:32;99256.56;;;-1.81;80.38
9439;BME280;5176;42.622;25.386;2022-12-20T02:58:08;99248.84;;;-1.81;81.19
9439;BME280;5176;42.622;25.386;2022-12-20T03:00:41;99259.22;;;-1.78;81.48
9439;BME280;5176;42.622;25.386;2022-12-20T03:03:11;99250.56;;;-1.81;80.85
9439;BME280;5176;42.622;25.386;2022-12-20T03:05:53;99258.16;;;-1.87;82.02
9439;BME280;5176;42.622;25.386;2022-12-20T03:08:22;99251.19;;;-1.95;82.87
9439;BME280;5176;42.622;25.386;2022-12-20T03:10:50;99247.63;;;-2.01;83.55
9439;BME280;5176;42.622;25.386;2022-12-20T03:13:19;99250.47;;;-1.87;83.11
9439;BME280;5176;42.622;25.386;2022-12-20T03:15:48;99240.13;;;-1.90;82.81
9439;BME280;5176;42.622;25.386;2022-12-20T03:18:15;99236.69;;;-1.91;82.43
9439;BME280;5176;42.622;25.386;2022-12-20T03:20:43;99218.22;;;-2.17;83.69
9439;BME280;5176;42.622;25.386;2022-12-20T03:23:10;99204.16;;;-2.37;82.84
9439;BME280;5176;42.622;25.386;2022-12-20T03:25:37;99214.84;;;-2.14;83.00
9439;BME280;5176;42.622;25.386;2022-12-20T03:28:04;99213.94;;;-2.18;83.76
9439;BME280;5176;42.622;25.386;2022-12-20T03:30:32;99213.53;;;-2.39;82.81
9439;BME280;5176;42.622;25.386;2022-12-20T03:33:04;99222.28;;;-2.73;84.17
9439;BME280;5176;42.622;25.386;2022-12-20T03:35:31;99234.31;;;-2.69;86.86
9439;BME280;5176;42.622;25.386;2022-12-20T03:37:59;99227.63;;;-2.61;86.69
9439;BME280;5176;42.622;25.386;2022-12-20T03:40:26;99237.28;;;-2.51;86.87
9439;BME280;5176;42.622;25.386;2022-12-20T03:42:53;99236.56;;;-2.44;86.14
9439;BME280;5176;42.622;25.386;2022-12-20T03:45:20;99234.97;;;-2.39;85.84
9439;BME280;5176;42.622;25.386;2022-12-20T03:47:47;99232.63;;;-2.27;85.02
9439;BME280;5176;42.622;25.386;2022-12-20T03:50:16;99233.41;;;-2.31;84.86
9439;BME280;5176;42.622;25.386;2022-12-20T03:52:44;99227.31;;;-2.34;85.60
9439;BME280;5176;42.622;25.386;2022-12-20T03:55:11;99247.97;;;-2.30;83.75
9439;BME280;5176;42.622;25.386;2022-12-20T03:57:39;99236.06;;;-2.26;83.65
9439;BME280;5176;42.622;25.386;2022-12-20T04:00:08;99230.88;;;-2.28;82.03
9439;BME280;5176;42.622;25.386;2022-12-20T04:02:37;99237.88;;;-2.21;81.77
9439;BME280;5176;42.622;25.386;2022-12-20T04:05:05;99189.38;;;-2.49;80.53
9439;BME280;5176;42.622;25.386;2022-12-20T04:07:34;99235.31;;;-2.21;79.60
9439;BME280;5176;42.622;25.386;2022-12-20T04:10:01;99229.25;;;-2.24;80.64
9439;BME280;5176;42.622;25.386;2022-12-20T04:12:29;99229.38;;;-2.16;80.42
9439;BME280;5176;42.622;25.386;2022-12-20T04:14:56;99241.38;;;-2.15;80.23
9439;BME280;5176;42.622;25.386;2022-12-20T04:17:24;99230.34;;;-2.10;79.61
9439;BME280;5176;42.622;25.386;2022-12-20T04:19:55;99234.72;;;-2.06;78.56
9439;BME280;5176;42.622;25.386;2022-12-20T04:22:22;99230.31;;;-2.13;78.45
9439;BME280;5176;42.622;25.386;2022-12-20T04:24:51;99238.81;;;-2.15;76.45
9439;BME280;5176;42.622;25.386;2022-12-20T04:27:19;99234.34;;;-2.26;75.85
9439;BME280;5176;42.622;25.386;2022-12-20T04:29:46;99219.59;;;-2.36;76.79
9439;BME280;5176;42.622;25.386;2022-12-20T04:32:13;99222.19;;;-2.34;78.44
9439;BME280;5176;42.622;25.386;2022-12-20T04:34:41;99224.72;;;-2.37;77.32
9439;BME280;5176;42.622;25.386;2022-12-20T04:37:08;99198.53;;;-2.62;77.63
9439;BME280;5176;42.622;25.386;2022-12-20T04:39:35;99207.22;;;-2.55;77.37
9439;BME280;5176;42.622;25.386;2022-12-20T04:42:04;99226.38;;;-2.39;77.72
9439;BME280;5176;42.622;25.386;2022-12-20T04:44:31;99222.13;;;-2.37;78.10
9439;BME280;5176;42.622;25.386;2022-12-20T04:46:59;99222.13;;;-2.39;77.60
9439;BME280;5176;42.622;25.386;2022-12-20T04:49:26;99192.47;;;-2.67;78.89
9439;BME280;5176;42.622;25.386;2022-12-20T04:51:53;99210.84;;;-2.45;80.63
9439;BME280;5176;42.622;25.386;2022-12-20T04:54:41;99211.75;;;-2.43;81.19
9439;BME280;5176;42.622;25.386;2022-12-20T04:57:08;99204.75;;;-2.51;82.31
9439;BME280;5176;42.622;25.386;2022-12-20T04:59:36;99198.53;;;-2.62;84.58
9439;BME280;5176;42.622;25.386;2022-12-20T05:02:03;99215.03;;;-2.51;85.10
9439;BME280;5176;42.622;25.386;2022-12-20T05:04:31;99205.59;;;-2.52;84.35
9439;BME280;5176;42.622;25.386;2022-12-20T05:06:58;99194.00;;;-2.75;83.92
9439;BME280;5176;42.622;25.386;2022-12-20T05:09:26;99204.84;;;-2.46;85.14
9439;BME280;5176;42.622;25.386;2022-12-20T05:11:53;99211.72;;;-2.45;85.59
9439;BME280;5176;42.622;25.386;2022-12-20T05:14:21;99212.50;;;-2.48;85.89
9439;BME280;5176;42.622;25.386;2022-12-20T05:16:49;99211.63;;;-2.48;84.99
9439;BME280;5176;42.622;25.386;2022-12-20T05:19:16;99216.75;;;-2.50;85.22
9439;BME280;5176;42.622;25.386;2022-12-20T05:21:44;99208.19;;;-2.50;86.00
9439;BME280;5176;42.622;25.386;2022-12-20T05:24:28;99202.13;;;-2.54;85.30
9439;BME280;5176;42.622;25.386;2022-12-20T05:27:12;99212.34;;;-2.55;85.52
9439;BME280;5176;42.622;25.386;2022-12-20T05:29:41;99202.84;;;-2.61;85.94
9439;BME280;5176;42.622;25.386;2022-12-20T05:32:08;99209.06;;;-2.50;86.02
9439;BME280;5176;42.622;25.386;2022-12-20T05:34:36;99204.75;;;-2.51;86.52
9439;BME280;5176;42.622;25.386;2022-12-20T05:37:03;99210.72;;;-2.52;85.72
9439;BME280;5176;42.622;25.386;2022-12-20T05:39:30;99213.31;;;-2.50;85.28
9439;BME280;5176;42.622;25.386;2022-12-20T05:41:58;99211.44;;;-2.59;86.12
9439;BME280;5176;42.622;25.386;2022-12-20T05:44:26;99207.03;;;-2.66;86.77
9439;BME280;5176;42.622;25.386;2022-12-20T05:46:54;99197.34;;;-2.79;87.35
9439;BME280;5176;42.622;25.386;2022-12-20T05:49:21;99214.34;;;-2.84;87.74
9439;BME280;5176;42.622;25.386;2022-12-20T05:51:49;99207.53;;;-2.82;88.44
9439;BME280;5176;42.622;25.386;2022-12-20T05:54:16;99206.75;;;-2.80;88.87
9439;BME280;5176;42.622;25.386;2022-12-20T05:56:43;99210.94;;;-2.83;88.78
9439;BME280;5176;42.622;25.386;2022-12-20T05:59:11;99208.28;;;-2.88;88.62
9439;BME280;5176;42.622;25.386;2022-12-20T06:01:38;99205.63;;;-2.92;89.00
9439;BME280;5176;42.622;25.386;2022-12-20T06:04:07;99205.69;;;-2.88;89.76
9439;BME280;5176;42.622;25.386;2022-12-20T06:06:34;99198.81;;;-2.90;89.73
9439;BME280;5176;42.622;25.386;2022-12-20T06:09:01;99193.56;;;-2.95;89.51
9439;BME280;5176;42.622;25.386;2022-12-20T06:11:28;99198.78;;;-2.92;90.25
9439;BME280;5176;42.622;25.386;2022-12-20T06:13:56;99198.78;;;-2.93;90.82
9439;BME280;5176;42.622;25.386;2022-12-20T06:16:23;99172.28;;;-2.91;90.39
9439;BME280;5176;42.622;25.386;2022-12-20T06:18:51;99190.66;;;-2.71;89.45
9439;BME280;5176;42.622;25.386;2022-12-20T06:21:19;99196.53;;;-2.77;87.81
9439;BME280;5176;42.622;25.386;2022-12-20T06:23:47;99200.91;;;-2.72;87.91
9439;BME280;5176;42.622;25.386;2022-12-20T06:26:14;99200.97;;;-2.68;89.01
9439;BME280;5176;42.622;25.386;2022-12-20T06:28:41;99196.59;;;-2.73;88.33
9439;BME280;5176;42.622;25.386;2022-12-20T06:31:09;99202.78;;;-2.64;87.57
9439;BME280;5176;42.622;25.386;2022-12-20T06:33:36;99207.19;;;-2.58;87.71
9439;BME280;5176;42.622;25.386;2022-12-20T06:36:04;99209.88;;;-2.51;88.03
9439;BME280;5176;42.622;25.386;2022-12-20T06:38:33;99195.59;;;-2.36;88.27
9439;BME280;5176;42.622;25.386;2022-12-20T06:41:00;99195.59;;;-2.36;88.00
9439;BME280;5176;42.622;25.386;2022-12-20T06:43:28;99205.28;;;-2.23;87.72
9439;BME280;5176;42.622;25.386;2022-12-20T06:45:55;99203.84;;;-2.07;87.15
9439;BME280;5176;42.622;25.386;2022-12-20T06:48:23;99204.09;;;-1.94;86.21
9439;BME280;5176;42.622;25.386;2022-12-20T06:50:50;99194.78;;;-1.87;85.06
9439;BME280;5176;42.622;25.386;2022-12-20T06:53:17;99198.25;;;-1.85;85.75
9439;BME280;5176;42.622;25.386;2022-12-20T06:55:47;99203.47;;;-1.80;86.21
9439;BME280;5176;42.622;25.386;2022-12-20T06:58:15;99200.28;;;-1.64;85.88
9439;BME280;5176;42.622;25.386;2022-12-20T07:00:42;99194.50;;;-1.51;85.18
9439;BME280;5176;42.622;25.386;2022-12-20T07:03:10;99197.38;;;-1.31;84.49
9439;BME280;5176;42.622;25.386;2022-12-20T07:05:37;99184.78;;;-1.13;84.06
9439;BME280;5176;42.622;25.386;2022-12-20T07:08:04;99179.91;;;-0.93;81.65
9439;BME280;5176;42.622;25.386;2022-12-20T07:10:33;99180.94;;;-0.77;81.95
9439;BME280;5176;42.622;25.386;2022-12-20T07:13:03;99169.00;;;-0.72;82.30
9439;BME280;5176;42.622;25.386;2022-12-20T07:15:30;99166.44;;;-0.70;82.24
9439;BME280;5176;42.622;25.386;2022-12-20T07:17:58;99163.06;;;-0.66;82.58
9439;BME280;5176;42.622;25.386;2022-12-20T07:20:25;99161.38;;;-0.61;82.36
9439;BME280;5176;42.622;25.386;2022-12-20T07:22:53;99162.38;;;-0.48;82.24
9439;BME280;5176;42.622;25.386;2022-12-20T07:25:20;99157.34;;;-0.36;82.36
9439;BME280;5176;42.622;25.386;2022-12-20T07:27:49;99158.47;;;-0.08;81.86
9439;BME280;5176;42.622;25.386;2022-12-20T07:30:19;99161.28;;;0.19;81.20
9439;BME280;5176;42.622;25.386;2022-12-20T07:32:46;99156.25;;;0.32;80.09
9439;BME280;5176;42.622;25.386;2022-12-20T07:35:14;99164.06;;;0.41;79.94
9439;BME280;5176;42.622;25.386;2022-12-20T07:37:41;99156.34;;;0.45;79.38
9439;BME280;5176;42.622;25.386;2022-12-20T07:40:10;99152.09;;;0.53;78.26
9439;BME280;5176;42.622;25.386;2022-12-20T07:42:39;99165.97;;;0.68;76.87
9439;BME280;5176;42.622;25.386;2022-12-20T07:45:07;99155.75;;;0.91;77.70
9439;BME280;5176;42.622;25.386;2022-12-20T07:47:35;99147.25;;;1.10;75.72
9439;BME280;5176;42.622;25.386;2022-12-20T07:50:04;99150.78;;;1.29;75.33
9439;BME280;5176;42.622;25.386;2022-12-20T07:52:32;99150.00;;;1.60;73.22
9439;BME280;5176;42.622;25.386;2022-12-20T07:55:02;99150.06;;;1.85;72.81
9439;BME280;5176;42.622;25.386;2022-12-20T07:57:34;99144.03;;;2.06;73.00
9439;BME280;5176;42.622;25.386;2022-12-20T08:00:05;99151.81;;;2.30;70.76
9439;BME280;5176;42.622;25.386;2022-12-20T08:02:37;99153.50;;;2.53;69.10
9439;BME280;5176;42.622;25.386;2022-12-20T08:05:07;99148.34;;;2.56;69.37
9439;BME280;5176;42.622;25.386;2022-12-20T08:07:36;99143.13;;;2.77;68.61
9439;BME280;5176;42.622;25.386;2022-12-20T08:10:08;99144.84;;;2.80;67.15
9439;BME280;5176;42.622;25.386;2022-12-20T08:12:38;99150.91;;;2.59;68.19
9439;BME280;5176;42.622;25.386;2022-12-20T08:15:07;99143.19;;;2.48;68.70
9439;BME280;5176;42.622;25.386;2022-12-20T08:17:36;99149.19;;;2.65;68.41
9439;BME280;5176;42.622;25.386;2022-12-20T08:20:05;99136.25;;;2.56;68.45
9439;BME280;5176;42.622;25.386;2022-12-20T08:22:33;99140.56;;;2.68;67.14
9439;BME280;5176;42.622;25.386;2022-12-20T08:25:00;99140.53;;;2.74;67.95
9439;BME280;5176;42.622;25.386;2022-12-20T08:27:27;99137.06;;;2.80;66.93
9439;BME280;5176;42.622;25.386;2022-12-20T08:29:55;99141.34;;;2.87;67.37
9439;BME280;5176;42.622;25.386;2022-12-20T08:32:22;99143.91;;;2.99;66.29
9439;BME280;5176;42.622;25.386;2022-12-20T08:34:51;99137.84;;;3.15;66.54
9439;BME280;5176;42.622;25.386;2022-12-20T08:37:19;99134.22;;;3.41;65.63
9439;BME280;5176;42.622;25.386;2022-12-20T08:39:46;99138.53;;;3.46;64.73
9439;BME280;5176;42.622;25.386;2022-12-20T08:42:13;99132.28;;;3.81;63.25
9439;BME280;5176;42.622;25.386;2022-12-20T08:44:40;99127.03;;;3.95;61.77
9439;BME280;5176;42.622;25.386;2022-12-20T08:47:08;99123.34;;;4.23;60.22
9439;BME280;5176;42.622;25.386;2022-12-20T08:49:36;99117.03;;;4.47;57.44
9439;BME280;5176;42.622;25.386;2022-12-20T08:52:05;99118.03;;;4.35;57.47
9439;BME280;5176;42.622;25.386;2022-12-20T08:54:32;99118.84;;;4.39;58.67
9439;BME280;5176;42.622;25.386;2022-12-20T08:56:59;99116.75;;;4.75;58.70
9439;BME280;5176;42.622;25.386;2022-12-20T08:59:27;99115.56;;;5.05;57.56
9439;BME280;5176;42.622;25.386;2022-12-20T09:01:54;99117.28;;;5.09;56.40
9439;BME280;5176;42.622;25.386;2022-12-20T09:04:21;99110.84;;;5.37;57.01
9439;BME280;5176;42.622;25.386;2022-12-20T09:06:48;99102.25;;;5.31;56.19
9439;BME280;5176;42.622;25.386;2022-12-20T09:09:17;99084.16;;;5.23;56.66
9439;BME280;5176;42.622;25.386;2022-12-20T09:11:44;99088.28;;;5.38;54.83
9439;BME280;5176;42.622;25.386;2022-12-20T09:14:11;99090.91;;;5.36;55.17
9439;BME280;5176;42.622;25.386;2022-12-20T09:16:39;99059.53;;;4.81;56.09
9439;BME280;5176;42.622;25.386;2022-12-20T09:19:06;99071.56;;;4.88;56.67
9439;BME280;5176;42.622;25.386;2022-12-20T09:21:34;99081.91;;;4.94;56.47
9439;BME280;5176;42.622;25.386;2022-12-20T09:24:02;99066.06;;;5.14;57.15
9439;BME280;5176;42.622;25.386;2022-12-20T09:26:31;99058.69;;;5.46;56.10
9439;BME280;5176;42.622;25.386;2022-12-20T09:29:00;99058.28;;;5.72;55.92
9439;BME280;5176;42.622;25.386;2022-12-20T09:31:28;99056.13;;;6.02;54.26
9439;BME280;5176;42.622;25.386;2022-12-20T09:33:56;99052.53;;;6.09;54.29
9439;BME280;5176;42.622;25.386;2022-12-20T09:36:25;99042.53;;;6.34;53.66
9439;BME280;5176;42.622;25.386;2022-12-20T09:38:54;99038.59;;;6.60;54.52
9439;BME280;5176;42.622;25.386;2022-12-20T09:41:26;99035.00;;;6.65;53.44
9439;BME280;5176;42.622;25.386;2022-12-20T09:43:56;99034.25;;;6.60;52.65
9439;BME280;5176;42.622;25.386;2022-12-20T09:46:25;99029.19;;;6.52;52.32
9439;BME280;5176;42.622;25.386;2022-12-20T09:48:53;99024.94;;;6.47;52.41
9439;BME280;5176;42.622;25.386;2022-12-20T09:51:33;99029.75;;;6.67;52.18
9439;BME280;5176;42.622;25.386;2022-12-20T09:54:15;99024.50;;;6.70;52.55
9439;BME280;5176;42.622;25.386;2022-12-20T09:56:52;99019.53;;;6.99;50.89
9439;BME280;5176;42.622;25.386;2022-12-20T09:59:24;99021.16;;;7.05;51.21
9439;BME280;5176;42.622;25.386;2022-12-20T10:01:51;99009.38;;;7.27;50.81
9439;BME280;5176;42.622;25.386;2022-12-20T10:04:21;98996.75;;;7.07;49.67
9439;BME280;5176;42.622;25.386;2022-12-20T10:07:01;98995.75;;;7.15;50.85
9439;BME280;5176;42.622;25.386;2022-12-20T10:09:46;98989.66;;;7.16;50.38
9439;BME280;5176;42.622;25.386;2022-12-20T10:12:25;98987.00;;;7.17;49.37
9439;BME280;5176;42.622;25.386;2022-12-20T10:15:08;98976.63;;;7.14;50.93
9439;BME280;5176;42.622;25.386;2022-12-20T10:17:49;98980.22;;;7.08;50.55
9439;BME280;5176;42.622;25.386;2022-12-20T10:20:40;98970.66;;;7.46;49.83
9439;BME280;5176;42.622;25.386;2022-12-20T10:23:17;98903.31;;;7.26;49.36
9439;BME280;5176;42.622;25.386;2022-12-20T10:25:56;98959.50;;;7.77;48.52
9439;BME280;5176;42.622;25.386;2022-12-20T10:28:26;98952.31;;;7.85;48.78
9439;BME280;5176;42.622;25.386;2022-12-20T10:31:00;98948.25;;;8.07;49.30
9439;BME280;5176;42.622;25.386;2022-12-20T10:33:30;98948.56;;;8.28;49.35
9439;BME280;5176;42.622;25.386;2022-12-20T10:36:22;98948.34;;;8.04;48.58
9439;BME280;5176;42.622;25.386;2022-12-20T10:38:52;98938.44;;;8.15;47.47
9439;BME280;5176;42.622;25.386;2022-12-20T10:41:21;98941.00;;;8.18;48.78
9439;BME280;5176;42.622;25.386;2022-12-20T10:43:53;98933.84;;;8.25;47.98
9439;BME280;5176;42.622;25.386;2022-12-20T10:46:33;98927.03;;;8.19;47.08
9439;BME280;5176;42.622;25.386;2022-12-20T10:49:21;98920.19;;;8.14;47.09
9439;BME280;5176;42.622;25.386;2022-12-20T10:51:53;98920.81;;;8.24;46.21
9439;BME280;5176;42.622;25.386;2022-12-20T10:54:28;98918.16;;;8.25;47.42
9439;BME280;5176;42.622;25.386;2022-12-20T10:56:58;98911.13;;;8.27;48.93
9439;BME280;5176;42.622;25.386;2022-12-20T10:59:30;98914.06;;;8.16;46.95
9439;BME280;5176;42.622;25.386;2022-12-20T11:02:02;98901.53;;;7.97;47.79
9439;BME280;5176;42.622;25.386;2022-12-20T11:04:31;98907.41;;;8.05;49.10
9439;BME280;5176;42.622;25.386;2022-12-20T11:07:00;98900.47;;;8.04;47.99
9439;BME280;5176;42.622;25.386;2022-12-20T11:09:30;98899.47;;;8.08;48.31
9439;BME280;5176;42.622;25.386;2022-12-20T11:12:06;98900.84;;;7.88;47.39
9439;BME280;5176;42.622;25.386;2022-12-20T11:14:35;98883.44;;;7.89;47.77
9439;BME280;5176;42.622;25.386;2022-12-20T11:17:18;98889.41;;;7.94;48.07
9439;BME280;5176;42.622;25.386;2022-12-20T11:20:01;98889.03;;;7.75;47.83
9439;BME280;5176;42.622;25.386;2022-12-20T11:22:42;98875.31;;;7.67;49.43
9439;BME280;5176;42.622;25.386;2022-12-20T11:25:30;98871.25;;;7.55;48.83
9439;BME280;5176;42.622;25.386;2022-12-20T11:28:16;98861.47;;;7.65;48.38
9439;BME280;5176;42.622;25.386;2022-12-20T11:30:53;98854.31;;;7.72;48.39
9439;BME280;5176;42.622;25.386;2022-12-20T11:33:41;98845.16;;;7.89;48.52
9439;BME280;5176;42.622;25.386;2022-12-20T11:36:17;98846.81;;;7.92;47.61
9439;BME280;5176;42.622;25.386;2022-12-20T11:38:51;98839.41;;;8.08;48.91
9439;BME280;5176;42.622;25.386;2022-12-20T11:41:27;98822.63;;;7.85;47.60
9439;BME280;5176;42.622;25.386;2022-12-20T11:44:08;98826.09;;;7.86;47.22
9439;BME280;5176;42.622;25.386;2022-12-20T11:46:55;98832.78;;;7.96;47.25
9439;BME280;5176;42.622;25.386;2022-12-20T11:49:49;98829.84;;;8.07;47.01
9439;BME280;5176;42.622;25.386;2022-12-20T11:52:25;98822.94;;;7.73;47.91
9439;BME280;5176;42.622;25.386;2022-12-20T11:55:08;98828.09;;;7.76;47.94
9439;BME280;5176;42.622;25.386;2022-12-20T11:57:45;98815.75;;;7.83;47.52
9439;BME280;5176;42.622;25.386;2022-12-20T12:00:15;98812.94;;;7.89;47.27
9439;BME280;5176;42.622;25.386;2022-12-20T12:02:45;98815.69;;;7.84;48.05
9439;BME280;5176;42.622;25.386;2022-12-20T12:05:19;98815.38;;;7.64;46.90
9439;BME280;5176;42.622;25.386;2022-12-20T12:07:52;98808.41;;;7.64;47.25
9439;BME280;5176;42.622;25.386;2022-12-20T12:10:22;98801.16;;;7.74;48.22
9439;BME280;5176;42.622;25.386;2022-12-20T12:12:56;98799.13;;;7.85;48.16
9439;BME280;5176;42.622;25.386;2022-12-20T12:15:30;98798.78;;;7.67;47.80
9439;BME280;5176;42.622;25.386;2022-12-20T12:18:03;98788.66;;;7.54;47.71
9439;BME280;5176;42.622;25.386;2022-12-20T12:20:43;98786.88;;;7.56;47.97
9439;BME280;5176;42.622;25.386;2022-12-20T12:23:17;98783.16;;;7.65;47.70
9439;BME280;5176;42.622;25.386;2022-12-20T12:25:45;98789.13;;;7.70;47.24
9439;BME280;5176;42.622;25.386;2022-12-20T12:28:14;98781.81;;;7.83;47.58
9439;BME280;5176;42.622;25.386;2022-12-20T12:30:48;98775.69;;;7.84;47.43
9439;BME280;5176;42.622;25.386;2022-12-20T12:33:20;98783.84;;;8.03;47.21
9439;BME280;5176;42.622;25.386;2022-12-20T12:36:16;98783.75;;;8.06;48.64
9439;BME280;5176;42.622;25.386;2022-12-20T12:39:25;98783.97;;;7.98;47.14
9439;BME280;5176;42.622;25.386;2022-12-20T12:42:29;98772.44;;;7.74;47.66
9439;BME280;5176;42.622;25.386;2022-12-20T12:45:04;98777.38;;;7.85;47.16
9439;BME280;5176;42.622;25.386;2022-12-20T12:47:36;98773.13;;;7.82;47.79
9439;BME280;5176;42.622;25.386;2022-12-20T12:50:08;98764.09;;;7.61;47.70
9439;BME280;5176;42.622;25.386;2022-12-20T12:52:48;98766.53;;;7.68;48.00
9439;BME280;5176;42.622;25.386;2022-12-20T12:55:38;98763.56;;;7.50;47.61
9439;BME280;5176;42.622;25.386;2022-12-20T12:58:29;98770.09;;;7.65;48.61
9439;BME280;5176;42.622;25.386;2022-12-20T13:00:58;98768.34;;;7.65;48.89
9439;BME280;5176;42.622;25.386;2022-12-20T13:03:40;98763.75;;;7.74;48.36
9439;BME280;5176;42.622;25.386;2022-12-20T13:09:21;98771.59;;;7.43;48.82
9439;BME280;5176;42.622;25.386;2022-12-20T13:18:24;98770.59;;;7.14;49.40
9439;BME280;5176;42.622;25.386;2022-12-20T13:27:26;98765.53;;;7.08;50.65
9439;BME280;5176;42.622;25.386;2022-12-20T13:32:54;98760.16;;;7.14;50.00
9439;BME280;5176;42.622;25.386;2022-12-20T13:35:44;98756.44;;;7.24;50.09
9439;BME280;5176;42.622;25.386;2022-12-20T13:41:40;98742.34;;;6.97;50.62
9439;BME280;5176;42.622;25.386;2022-12-20T13:44:35;98737.50;;;6.82;51.05
9439;BME280;5176;42.622;25.386;2022-12-20T13:47:17;98749.25;;;6.64;50.69
9439;BME280;5176;42.622;25.386;2022-12-20T13:49:48;98753.66;;;6.61;51.57
9439;BME280;5176;42.622;25.386;2022-12-20T13:52:28;98755.09;;;6.74;51.43
9439;BME280;5176;42.622;25.386;2022-12-20T13:54:58;98754.03;;;6.81;51.60
9439;BME280;5176;42.622;25.386;2022-12-20T13:57:30;98742.56;;;6.88;51.61
9439;BME280;5176;42.622;25.386;2022-12-20T14:00:03;98756.72;;;6.78;53.09